createdAt,value
2024-03-25T00:00:16.266Z,30.339000
2024-03-25T00:05:16.078Z,30.340000
2024-03-25T00:10:16.057Z,30.344000
2024-03-25T00:15:16.244Z,30.349000
2024-03-25T00:20:16.039Z,30.351000
2024-03-25T00:25:16.096Z,30.353000
2024-03-25T00:30:16.089Z,30.355000
2024-03-25T00:35:16.115Z,30.360000
2024-03-25T00:40:16.169Z,30.361000
2024-03-25T00:45:16.093Z,30.366000
2024-03-25T00:50:16.319Z,30.368000
2024-03-25T00:55:16.310Z,30.373000
2024-03-25T01:00:16.149Z,30.379000
2024-03-25T01:05:16.134Z,30.378000
2024-03-25T01:10:16.193Z,30.383000
2024-03-25T01:15:16.159Z,30.384000
2024-03-25T01:20:16.533Z,30.381000
2024-03-25T01:25:16.175Z,30.384000
2024-03-25T01:30:16.204Z,30.385000
2024-03-25T01:35:16.214Z,30.389000
2024-03-25T01:40:16.225Z,30.382000
2024-03-25T01:45:16.201Z,30.380000
2024-03-25T01:50:16.231Z,30.380000
2024-03-25T01:55:16.290Z,30.381000
2024-03-25T02:00:16.283Z,30.383000
2024-03-25T02:05:16.336Z,30.381000
2024-03-25T02:10:16.285Z,30.383000
2024-03-25T02:15:16.376Z,30.383000
2024-03-25T02:20:16.536Z,30.388000
2024-03-25T02:25:16.544Z,30.380000
2024-03-25T02:30:16.491Z,30.385000
2024-03-25T02:35:18.374Z,30.386000
2024-03-25T02:40:16.619Z,30.391000
2024-03-25T02:45:16.332Z,30.389000
2024-03-25T02:50:16.319Z,30.388000
2024-03-25T02:55:16.324Z,30.392000
2024-03-25T03:00:18.476Z,30.384000
2024-03-25T03:05:16.549Z,30.391000
2024-03-25T03:10:16.580Z,30.384000
2024-03-25T03:15:16.564Z,30.389000
2024-03-25T03:20:16.411Z,30.388000
2024-03-25T03:25:16.409Z,30.392000
2024-03-25T03:30:16.570Z,30.388000
2024-03-25T03:35:16.414Z,30.395000
2024-03-25T03:40:16.611Z,30.391000
2024-03-25T03:45:16.598Z,30.395000
2024-03-25T03:50:16.617Z,30.391000
2024-03-25T03:55:16.518Z,30.388000
2024-03-25T04:00:16.135Z,30.392000
2024-03-25T04:05:15.954Z,30.393000
2024-03-25T04:10:16.017Z,30.396000
2024-03-25T04:15:16.137Z,30.396000
2024-03-25T04:20:15.999Z,30.395000
2024-03-25T04:25:16.185Z,30.401000
2024-03-25T04:30:16.011Z,30.399000
2024-03-25T04:35:16.209Z,30.402000
2024-03-25T04:40:16.081Z,30.402000
2024-03-25T04:45:16.068Z,30.403000
2024-03-25T04:50:16.028Z,30.402000
2024-03-25T04:55:16.215Z,30.404000
2024-03-25T05:00:16.089Z,30.400000
2024-03-25T05:05:16.091Z,30.404000
2024-03-25T05:10:16.075Z,30.403000
2024-03-25T05:15:16.111Z,30.403000
2024-03-25T05:20:16.122Z,30.409000
2024-03-25T05:25:16.303Z,30.411000
2024-03-25T05:30:16.192Z,30.409000
2024-03-25T05:35:16.157Z,30.403000
2024-03-25T05:40:16.146Z,30.416000
2024-03-25T05:45:16.140Z,30.405000
2024-03-25T05:50:16.137Z,30.413000
2024-03-25T05:55:16.372Z,30.406000
2024-03-25T06:00:16.172Z,30.405000
2024-03-25T06:05:16.221Z,30.406000
2024-03-25T06:10:16.339Z,30.407000
2024-03-25T06:15:16.214Z,30.402000
2024-03-25T06:20:16.225Z,30.413000
2024-03-25T06:25:16.218Z,30.407000
2024-03-25T06:30:16.229Z,30.415000
2024-03-25T06:35:16.395Z,30.416000
2024-03-25T06:40:16.239Z,30.421000
2024-03-25T06:45:16.451Z,30.419000
2024-03-25T06:50:16.241Z,30.420000
2024-03-25T06:55:16.304Z,30.418000
2024-03-25T07:00:16.287Z,30.418000
2024-03-25T07:05:16.302Z,30.414000
2024-03-25T07:10:16.548Z,30.415000
2024-03-25T07:15:16.336Z,30.416000
2024-03-25T07:20:16.297Z,30.420000
2024-03-25T07:25:16.314Z,30.419000
2024-03-25T07:30:16.385Z,30.422000
2024-03-25T07:35:16.317Z,30.424000
2024-03-25T07:40:16.360Z,30.424000
2024-03-25T07:45:16.373Z,30.424000
2024-03-25T07:50:16.410Z,30.428000
2024-03-25T07:55:16.368Z,30.430000
2024-03-25T08:00:16.392Z,30.435000
2024-03-25T08:05:16.412Z,30.428000
2024-03-25T08:10:16.593Z,30.438000
2024-03-25T08:15:16.416Z,30.434000
2024-03-25T08:20:16.436Z,30.439000
2024-03-25T08:25:16.596Z,30.438000
2024-03-25T08:30:16.696Z,30.437000
2024-03-25T08:35:16.431Z,30.443000
2024-03-25T08:40:16.564Z,30.443000
2024-03-25T08:45:16.474Z,30.443000
2024-03-25T08:50:16.532Z,30.440000
2024-03-25T08:55:16.471Z,30.451000
2024-03-25T09:00:16.525Z,30.439000
2024-03-25T09:05:16.525Z,30.449000
2024-03-25T09:10:16.543Z,30.445000
2024-03-25T09:15:16.752Z,30.446000
2024-03-25T09:20:16.530Z,30.442000
2024-03-25T09:25:16.735Z,30.446000
2024-03-25T09:30:16.597Z,30.450000
2024-03-25T09:35:16.607Z,30.446000
2024-03-25T09:40:16.583Z,30.454000
2024-03-25T09:45:16.653Z,30.454000
2024-03-25T09:50:16.590Z,30.458000
2024-03-25T09:55:16.568Z,30.454000
2024-03-25T10:00:16.652Z,30.461000
2024-03-25T10:05:16.624Z,30.455000
2024-03-25T10:10:16.628Z,30.457000
2024-03-25T10:15:16.901Z,30.454000
2024-03-25T10:20:16.628Z,30.455000
2024-03-25T10:25:16.667Z,30.452000
2024-03-25T10:30:16.651Z,30.457000
2024-03-25T10:35:17.011Z,30.451000
2024-03-25T10:40:16.910Z,30.457000
2024-03-25T10:45:16.695Z,30.456000
2024-03-25T10:50:16.762Z,30.458000
2024-03-25T10:55:16.723Z,30.462000
2024-03-25T11:00:16.698Z,30.462000
2024-03-25T11:05:16.713Z,30.464000
2024-03-25T11:10:16.727Z,30.465000
2024-03-25T11:15:16.725Z,30.469000
2024-03-25T11:20:16.992Z,30.462000
2024-03-25T11:25:16.742Z,30.470000
2024-03-25T11:30:16.740Z,30.472000
2024-03-25T11:35:16.827Z,30.477000
2024-03-25T11:40:16.797Z,30.476000
2024-03-25T11:45:16.767Z,30.474000
2024-03-25T11:50:16.789Z,30.479000
2024-03-25T11:55:16.794Z,30.477000
2024-03-25T12:00:16.828Z,30.482000
2024-03-25T12:06:02.292Z,30.479000
2024-03-25T12:10:16.799Z,30.485000
2024-03-25T12:15:17.099Z,30.483000
2024-03-25T12:20:16.897Z,30.487000
2024-03-25T12:25:16.822Z,30.484000
2024-03-25T12:30:16.887Z,30.485000
2024-03-25T12:35:16.848Z,30.483000
2024-03-25T12:40:17.085Z,30.482000
2024-03-25T12:45:16.874Z,30.478000
2024-03-25T12:50:16.940Z,30.481000
2024-03-25T12:55:16.893Z,30.484000
2024-03-25T13:00:16.899Z,30.485000
2024-03-25T13:05:16.916Z,30.484000
2024-03-25T13:10:17.069Z,30.485000
2024-03-25T13:15:16.919Z,30.485000
2024-03-25T13:20:16.950Z,30.488000
2024-03-25T13:25:16.932Z,30.486000
2024-03-25T13:30:17.167Z,30.490000
2024-03-25T13:35:17.032Z,30.491000
2024-03-25T13:40:16.970Z,30.490000
2024-03-25T13:45:17.026Z,30.492000
2024-03-25T13:50:17.232Z,30.489000
2024-03-25T13:55:16.987Z,30.491000
2024-03-25T14:00:17.069Z,30.488000
2024-03-25T14:05:17.227Z,30.486000
2024-03-25T14:10:17.615Z,30.491000
2024-03-25T14:15:17.202Z,30.491000
2024-03-25T14:20:17.056Z,30.488000
2024-03-25T14:25:17.114Z,30.484000
2024-03-25T14:30:18.725Z,30.483000
2024-03-25T14:35:17.187Z,30.480000
2024-03-25T14:40:17.133Z,30.486000
2024-03-25T14:45:17.108Z,30.487000
2024-03-25T14:50:19.137Z,30.493000
2024-03-25T14:55:17.096Z,30.492000
2024-03-25T15:00:17.115Z,30.491000
2024-03-25T15:05:17.173Z,30.496000
2024-03-25T15:10:17.188Z,30.501000
2024-03-25T15:15:17.715Z,30.502000
2024-03-25T15:20:17.237Z,30.505000
2024-03-25T15:25:17.390Z,30.503000
2024-03-25T15:30:17.355Z,30.502000
2024-03-25T15:35:17.148Z,30.504000
2024-03-25T15:40:17.236Z,30.503000
2024-03-25T15:45:15.223Z,30.506000
2024-03-25T15:50:15.187Z,30.502000
2024-03-25T15:55:15.221Z,30.500000
2024-03-25T16:00:15.254Z,30.500000
2024-03-25T16:05:15.386Z,30.500000
2024-03-25T16:10:15.277Z,30.503000
2024-03-25T16:15:15.281Z,30.501000
2024-03-25T16:20:15.305Z,30.502000
2024-03-25T16:25:15.695Z,30.499000
2024-03-25T16:30:15.308Z,30.498000
2024-03-25T16:35:15.242Z,30.500000
2024-03-25T16:40:15.312Z,30.495000
2024-03-25T16:45:15.533Z,30.500000
2024-03-25T16:50:15.297Z,30.497000
2024-03-25T16:55:15.577Z,30.498000
2024-03-25T17:00:15.321Z,30.490000
2024-03-25T17:05:15.338Z,30.489000
2024-03-25T17:10:15.381Z,30.491000
2024-03-25T17:15:15.507Z,30.488000
2024-03-25T17:20:15.330Z,30.488000
2024-03-25T17:25:15.360Z,30.487000
2024-03-25T17:30:15.383Z,30.487000
2024-03-25T17:35:15.367Z,30.486000
2024-03-25T17:40:15.456Z,30.485000
2024-03-25T17:45:15.608Z,30.484000
2024-03-25T17:50:15.410Z,30.483000
2024-03-25T17:55:15.400Z,30.481000
2024-03-25T18:00:15.508Z,30.477000
2024-03-25T18:05:15.462Z,30.478000
2024-03-25T18:10:15.500Z,30.476000
2024-03-25T18:15:15.434Z,30.475000
2024-03-25T18:20:15.508Z,30.471000
2024-03-25T18:25:15.487Z,30.470000
2024-03-25T18:30:15.522Z,30.468000
2024-03-25T18:35:15.496Z,30.467000
2024-03-25T18:40:15.566Z,30.468000
2024-03-25T18:45:15.735Z,30.467000
2024-03-25T18:50:15.490Z,30.470000
2024-03-25T18:55:15.530Z,30.463000
2024-03-25T19:00:15.682Z,30.467000
2024-03-25T19:05:15.514Z,30.462000
2024-03-25T19:10:17.656Z,30.460000
2024-03-25T19:15:15.716Z,30.458000
2024-03-25T19:20:15.733Z,30.455000
2024-03-25T19:25:15.812Z,30.458000
2024-03-25T19:30:15.582Z,30.457000
2024-03-25T19:35:15.790Z,30.453000
2024-03-25T19:40:15.597Z,30.452000
2024-03-25T19:45:15.609Z,30.451000
2024-03-25T19:50:15.630Z,30.447000
2024-03-25T19:55:15.614Z,30.446000
2024-03-25T20:00:15.654Z,30.444000
2024-03-25T20:05:15.613Z,30.442000
2024-03-25T20:10:15.880Z,30.440000
2024-03-25T20:15:15.671Z,30.434000
2024-03-25T20:20:15.648Z,30.432000
2024-03-25T20:25:15.865Z,30.429000
2024-03-25T20:30:15.668Z,30.431000
2024-03-25T20:35:15.693Z,30.426000
2024-03-25T20:40:15.719Z,30.423000
2024-03-25T20:45:15.680Z,30.425000
2024-03-25T20:50:15.738Z,30.424000
2024-03-25T20:55:15.802Z,30.421000
2024-03-25T21:00:15.762Z,30.419000
2024-03-25T21:05:15.951Z,30.419000
2024-03-25T21:10:15.896Z,30.419000
2024-03-25T21:15:15.974Z,30.418000
2024-03-25T21:20:15.989Z,30.416000
2024-03-25T21:25:16.024Z,30.414000
2024-03-25T21:30:15.793Z,30.419000
2024-03-25T21:35:15.984Z,30.419000
2024-03-25T21:40:16.006Z,30.418000
2024-03-25T21:45:15.857Z,30.421000
2024-03-25T21:50:15.841Z,30.425000
2024-03-25T21:55:15.828Z,30.426000
2024-03-25T22:00:16.294Z,30.426000
2024-03-25T22:05:15.865Z,30.431000
2024-03-25T22:10:15.886Z,30.432000
2024-03-25T22:15:16.065Z,30.435000
2024-03-25T22:20:15.896Z,30.438000
2024-03-25T22:25:15.870Z,30.436000
2024-03-25T22:30:16.072Z,30.435000
2024-03-25T22:35:15.888Z,30.432000
2024-03-25T22:40:16.106Z,30.435000
2024-03-25T22:45:16.055Z,30.433000
2024-03-25T22:50:15.900Z,30.431000
2024-03-25T22:55:15.902Z,30.432000
2024-03-25T23:00:16.110Z,30.431000
2024-03-25T23:05:16.132Z,30.431000
2024-03-25T23:10:16.035Z,30.430000
2024-03-25T23:15:16.158Z,30.431000
2024-03-25T23:20:16.146Z,30.435000
2024-03-25T23:25:16.143Z,30.433000
2024-03-25T23:30:16.088Z,30.436000
2024-03-25T23:35:16.164Z,30.432000
2024-03-25T23:40:16.051Z,30.434000
2024-03-25T23:45:15.998Z,30.434000
2024-03-25T23:50:16.033Z,30.432000
2024-03-25T23:55:16.035Z,30.430000
